sensor_id;sensor_type;location;lat;lon;timestamp;pressure;altitude;pressure_sealevel;temperature;humidity
52957;BME280;38819;42.692;23.342;2023-07-13T00:00:27;95508.34;;;25.61;52.44
52957;BME280;38819;42.692;23.342;2023-07-13T00:02:53;95501.22;;;25.56;52.32
52957;BME280;38819;42.692;23.342;2023-07-13T00:05:22;95515.78;;;25.49;52.32
52957;BME280;38819;42.692;23.342;2023-07-13T00:07:49;95511.38;;;25.45;52.21
52957;BME280;38819;42.692;23.342;2023-07-13T00:10:15;95507.84;;;25.48;52.31
52957;BME280;38819;42.692;23.342;2023-07-13T00:12:41;95511.38;;;25.45;52.78
52957;BME280;38819;42.692;23.342;2023-07-13T00:15:14;95507.72;;;25.33;53.29
52957;BME280;38819;42.692;23.342;2023-07-13T00:17:41;95509.19;;;25.24;53.29
52957;BME280;38819;42.692;23.342;2023-07-13T00:20:10;95516.00;;;25.33;53.03
52957;BME280;38819;42.692;23.342;2023-07-13T00:22:36;95502.94;;;25.30;53.02
52957;BME280;38819;42.692;23.342;2023-07-13T00:25:02;95501.69;;;25.24;53.55
52957;BME280;38819;42.692;23.342;2023-07-13T00:27:27;95486.22;;;25.16;53.70
52957;BME280;38819;42.692;23.342;2023-07-13T00:29:54;95494.13;;;25.18;53.97
52957;BME280;38819;42.692;23.342;2023-07-13T00:32:20;95494.06;;;25.14;55.04
52957;BME280;38819;42.692;23.342;2023-07-13T00:34:46;95491.25;;;25.07;56.46
52957;BME280;38819;42.692;23.342;2023-07-13T00:37:12;95490.38;;;24.99;56.70
52957;BME280;38819;42.692;23.342;2023-07-13T00:39:37;95497.50;;;25.00;56.99
52957;BME280;38819;42.692;23.342;2023-07-13T00:42:04;95490.38;;;24.99;56.39
52957;BME280;38819;42.692;23.342;2023-07-13T00:44:30;95493.97;;;25.03;55.82
52957;BME280;38819;42.692;23.342;2023-07-13T00:46:55;95498.34;;;25.04;56.15
52957;BME280;38819;42.692;23.342;2023-07-13T00:49:24;95493.97;;;25.03;56.00
52957;BME280;38819;42.692;23.342;2023-07-13T00:52:02;95500.22;;;24.96;56.00
52957;BME280;38819;42.692;23.342;2023-07-13T00:54:35;95493.91;;;24.96;55.99
52957;BME280;38819;42.692;23.342;2023-07-13T00:57:05;95490.31;;;24.92;56.13
52957;BME280;38819;42.692;23.342;2023-07-13T00:59:31;95499.78;;;24.91;56.56
52957;BME280;38819;42.692;23.342;2023-07-13T01:01:57;95487.13;;;24.90;56.99
52957;BME280;38819;42.692;23.342;2023-07-13T01:04:26;95491.94;;;24.96;56.95
52957;BME280;38819;42.692;23.342;2023-07-13T01:06:52;95487.50;;;24.88;57.35
52957;BME280;38819;42.692;23.342;2023-07-13T01:09:19;95487.47;;;24.85;57.13
52957;BME280;38819;42.692;23.342;2023-07-13T01:11:46;95478.00;;;24.86;57.01
52957;BME280;38819;42.692;23.342;2023-07-13T01:14:11;95489.41;;;24.81;56.15
52957;BME280;38819;42.692;23.342;2023-07-13T01:16:38;95483.97;;;24.88;55.92
52957;BME280;38819;42.692;23.342;2023-07-13T01:21:50;95488.16;;;24.74;55.99
52957;BME280;38819;42.692;23.342;2023-07-13T01:24:15;95478.66;;;24.72;56.31
52957;BME280;38819;42.692;23.342;2023-07-13T01:26:41;95473.09;;;24.68;56.63
52957;BME280;38819;42.692;23.342;2023-07-13T01:29:06;95477.84;;;24.68;56.67
52957;BME280;38819;42.692;23.342;2023-07-13T01:31:32;95487.31;;;24.70;57.76
52957;BME280;38819;42.692;23.342;2023-07-13T01:33:58;95480.97;;;24.66;57.81
52957;BME280;38819;42.692;23.342;2023-07-13T01:36:23;95479.00;;;24.67;57.84
52957;BME280;38819;42.692;23.342;2023-07-13T01:38:49;95482.84;;;24.58;57.82
52957;BME280;38819;42.692;23.342;2023-07-13T01:41:14;95486.34;;;24.55;58.09
52957;BME280;38819;42.692;23.342;2023-07-13T01:43:40;95476.38;;;24.47;58.38
52957;BME280;38819;42.692;23.342;2023-07-13T01:46:05;95479.78;;;24.37;58.69
52957;BME280;38819;42.692;23.342;2023-07-13T01:48:31;95471.66;;;24.48;58.39
52957;BME280;38819;42.692;23.342;2023-07-13T01:50:56;95473.94;;;24.42;58.64
52957;BME280;38819;42.692;23.342;2023-07-13T01:53:21;95476.16;;;24.29;59.40
52957;BME280;38819;42.692;23.342;2023-07-13T01:55:47;95482.09;;;24.31;59.29
52957;BME280;38819;42.692;23.342;2023-07-13T01:58:12;95476.94;;;24.30;59.76
52957;BME280;38819;42.692;23.342;2023-07-13T02:00:38;95473.34;;;24.26;59.59
52957;BME280;38819;42.692;23.342;2023-07-13T02:03:03;95481.63;;;24.26;60.04
52957;BME280;38819;42.692;23.342;2023-07-13T02:05:29;95483.91;;;24.20;60.25
52957;BME280;38819;42.692;23.342;2023-07-13T02:07:54;95485.03;;;24.15;60.60
52957;BME280;38819;42.692;23.342;2023-07-13T02:10:20;95492.97;;;24.20;60.57
52957;BME280;38819;42.692;23.342;2023-07-13T02:12:45;95488.66;;;24.19;60.72
52957;BME280;38819;42.692;23.342;2023-07-13T02:15:11;95482.59;;;24.10;60.97
52957;BME280;38819;42.692;23.342;2023-07-13T02:17:37;95491.38;;;24.16;60.86
52957;BME280;38819;42.692;23.342;2023-07-13T02:20:03;95491.63;;;24.07;61.24
52957;BME280;38819;42.692;23.342;2023-07-13T02:22:30;95495.25;;;24.11;61.06
52957;BME280;38819;42.692;23.342;2023-07-13T02:24:55;95495.66;;;24.13;61.42
52957;BME280;38819;42.692;23.342;2023-07-13T02:27:21;95494.38;;;24.07;61.21
52957;BME280;38819;42.692;23.342;2023-07-13T02:29:46;95496.34;;;24.07;61.30
52957;BME280;38819;42.692;23.342;2023-07-13T02:32:12;95496.34;;;24.07;61.11
52957;BME280;38819;42.692;23.342;2023-07-13T02:34:38;95488.88;;;24.07;61.13
52957;BME280;38819;42.692;23.342;2023-07-13T02:37:04;95500.22;;;24.02;61.95
52957;BME280;38819;42.692;23.342;2023-07-13T02:39:29;95500.28;;;24.05;62.10
52957;BME280;38819;42.692;23.342;2023-07-13T02:41:58;95497.06;;;24.00;62.31
52957;BME280;38819;42.692;23.342;2023-07-13T02:44:23;95501.13;;;24.10;62.50
52957;BME280;38819;42.692;23.342;2023-07-13T02:46:49;95497.25;;;24.14;62.32
52957;BME280;38819;42.692;23.342;2023-07-13T02:49:14;95501.09;;;24.06;62.51
52957;BME280;38819;42.692;23.342;2023-07-13T02:51:39;95493.47;;;23.96;62.60
52957;BME280;38819;42.692;23.342;2023-07-13T02:54:05;95501.38;;;23.97;62.95
52957;BME280;38819;42.692;23.342;2023-07-13T02:56:31;95500.41;;;23.86;63.42
52957;BME280;38819;42.692;23.342;2023-07-13T02:58:57;95510.22;;;23.83;63.89
52957;BME280;38819;42.692;23.342;2023-07-13T03:01:23;95505.31;;;23.73;63.58
52957;BME280;38819;42.692;23.342;2023-07-13T03:03:51;95513.25;;;23.78;63.65
52957;BME280;38819;42.692;23.342;2023-07-13T03:06:17;95520.75;;;23.78;63.53
52957;BME280;38819;42.692;23.342;2023-07-13T03:08:43;95514.44;;;23.77;63.10
52957;BME280;38819;42.692;23.342;2023-07-13T03:11:12;95512.47;;;23.78;63.13
52957;BME280;38819;42.692;23.342;2023-07-13T03:13:40;95522.25;;;23.75;63.14
52957;BME280;38819;42.692;23.342;2023-07-13T03:16:06;95517.13;;;23.74;63.29
52957;BME280;38819;42.692;23.342;2023-07-13T03:18:32;95511.81;;;23.84;62.49
52957;BME280;38819;42.692;23.342;2023-07-13T03:20:57;95517.00;;;23.90;62.45
52957;BME280;38819;42.692;23.342;2023-07-13T03:23:23;95510.94;;;24.07;61.58
52957;BME280;38819;42.692;23.342;2023-07-13T03:25:50;95520.50;;;24.13;61.55
52957;BME280;38819;42.692;23.342;2023-07-13T03:28:15;95518.84;;;24.09;60.52
52957;BME280;38819;42.692;23.342;2023-07-13T03:30:42;95514.66;;;24.18;60.30
52957;BME280;38819;42.692;23.342;2023-07-13T03:33:07;95519.47;;;24.25;59.89
52957;BME280;38819;42.692;23.342;2023-07-13T03:35:34;95517.09;;;24.23;59.91
52957;BME280;38819;42.692;23.342;2023-07-13T03:38:00;95517.31;;;24.41;59.97
52957;BME280;38819;42.692;23.342;2023-07-13T03:40:27;95528.28;;;24.34;60.03
52957;BME280;38819;42.692;23.342;2023-07-13T03:42:53;95527.53;;;24.37;59.98
52957;BME280;38819;42.692;23.342;2023-07-13T03:45:18;95530.72;;;24.39;59.87
52957;BME280;38819;42.692;23.342;2023-07-13T03:47:44;95520.09;;;24.41;59.90
52957;BME280;38819;42.692;23.342;2023-07-13T03:50:10;95521.63;;;24.39;59.49
52957;BME280;38819;42.692;23.342;2023-07-13T03:52:35;95520.13;;;24.45;59.30
52957;BME280;38819;42.692;23.342;2023-07-13T03:55:01;95522.59;;;24.54;59.03
52957;BME280;38819;42.692;23.342;2023-07-13T03:57:27;95518.38;;;24.60;58.19
52957;BME280;38819;42.692;23.342;2023-07-13T03:59:52;95516.19;;;24.46;58.55
52957;BME280;38819;42.692;23.342;2023-07-13T04:02:17;95520.50;;;24.44;58.90
52957;BME280;38819;42.692;23.342;2023-07-13T04:04:43;95520.47;;;24.40;58.77
52957;BME280;38819;42.692;23.342;2023-07-13T04:07:09;95520.50;;;24.44;58.86
52957;BME280;38819;42.692;23.342;2023-07-13T04:09:35;95520.53;;;24.47;58.99
52957;BME280;38819;42.692;23.342;2023-07-13T04:12:00;95513.19;;;24.55;58.51
52957;BME280;38819;42.692;23.342;2023-07-13T04:14:26;95514.41;;;24.57;59.12
52957;BME280;38819;42.692;23.342;2023-07-13T04:16:51;95518.78;;;24.62;59.05
52957;BME280;38819;42.692;23.342;2023-07-13T04:19:20;95519.22;;;24.64;58.93
52957;BME280;38819;42.692;23.342;2023-07-13T04:21:45;95531.06;;;24.65;59.18
52957;BME280;38819;42.692;23.342;2023-07-13T04:24:10;95536.06;;;24.55;59.20
52957;BME280;38819;42.692;23.342;2023-07-13T04:26:36;95529.16;;;24.42;59.67
52957;BME280;38819;42.692;23.342;2023-07-13T04:29:03;95531.09;;;24.38;59.69
52957;BME280;38819;42.692;23.342;2023-07-13T04:31:29;95536.56;;;24.34;59.75
52957;BME280;38819;42.692;23.342;2023-07-13T04:33:55;95540.56;;;24.40;59.75
52957;BME280;38819;42.692;23.342;2023-07-13T04:36:20;95539.06;;;24.47;59.38
52957;BME280;38819;42.692;23.342;2023-07-13T04:38:45;95535.28;;;24.55;58.88
52957;BME280;38819;42.692;23.342;2023-07-13T04:41:12;95546.84;;;24.64;58.79
52957;BME280;38819;42.692;23.342;2023-07-13T04:43:38;95544.91;;;24.68;58.68
52957;BME280;38819;42.692;23.342;2023-07-13T04:46:08;95541.03;;;24.73;58.42
52957;BME280;38819;42.692;23.342;2023-07-13T04:48:35;95537.91;;;24.78;58.56
52957;BME280;38819;42.692;23.342;2023-07-13T04:51:00;95549.16;;;24.62;58.88
52957;BME280;38819;42.692;23.342;2023-07-13T04:53:27;95552.72;;;24.63;58.41
52957;BME280;38819;42.692;23.342;2023-07-13T04:55:52;95554.34;;;24.67;58.24
52957;BME280;38819;42.692;23.342;2023-07-13T04:58:18;95564.16;;;24.61;58.67
52957;BME280;38819;42.692;23.342;2023-07-13T05:00:44;95554.69;;;24.62;58.48
52957;BME280;38819;42.692;23.342;2023-07-13T05:03:10;95554.69;;;24.62;58.63
52957;BME280;38819;42.692;23.342;2023-07-13T05:05:35;95555.16;;;24.68;58.95
52957;BME280;38819;42.692;23.342;2023-07-13T05:08:00;95556.63;;;24.58;59.37
52957;BME280;38819;42.692;23.342;2023-07-13T05:10:26;95563.56;;;24.48;59.32
52957;BME280;38819;42.692;23.342;2023-07-13T05:12:51;95553.88;;;24.31;59.85
52957;BME280;38819;42.692;23.342;2023-07-13T05:15:17;95565.09;;;24.46;59.37
52957;BME280;38819;42.692;23.342;2023-07-13T05:17:47;95561.16;;;24.47;59.66
52957;BME280;38819;42.692;23.342;2023-07-13T05:20:13;95559.69;;;24.53;59.62
52957;BME280;38819;42.692;23.342;2023-07-13T05:22:38;95565.78;;;24.66;59.45
52957;BME280;38819;42.692;23.342;2023-07-13T05:25:05;95562.03;;;24.81;59.11
52957;BME280;38819;42.692;23.342;2023-07-13T05:27:31;95554.97;;;24.87;58.92
52957;BME280;38819;42.692;23.342;2023-07-13T05:29:56;95557.84;;;24.94;59.16
52957;BME280;38819;42.692;23.342;2023-07-13T05:32:22;95564.25;;;25.06;58.89
52957;BME280;38819;42.692;23.342;2023-07-13T05:34:47;95568.31;;;25.15;57.82
52957;BME280;38819;42.692;23.342;2023-07-13T05:37:13;95567.16;;;25.17;57.62
52957;BME280;38819;42.692;23.342;2023-07-13T05:39:38;95572.44;;;25.29;57.61
52957;BME280;38819;42.692;23.342;2023-07-13T05:42:04;95570.19;;;25.38;57.63
52957;BME280;38819;42.692;23.342;2023-07-13T05:44:29;95565.94;;;25.48;57.57
52957;BME280;38819;42.692;23.342;2023-07-13T05:46:55;95574.66;;;25.54;57.36
52957;BME280;38819;42.692;23.342;2023-07-13T05:49:22;95577.22;;;25.73;56.93
52957;BME280;38819;42.692;23.342;2023-07-13T05:51:47;95570.19;;;25.83;55.98
52957;BME280;38819;42.692;23.342;2023-07-13T05:54:13;95572.16;;;25.86;55.79
52957;BME280;38819;42.692;23.342;2023-07-13T05:56:38;95575.38;;;25.92;55.53
52957;BME280;38819;42.692;23.342;2023-07-13T05:59:04;95563.63;;;26.02;55.54
52957;BME280;38819;42.692;23.342;2023-07-13T06:01:30;95558.50;;;26.07;55.28
52957;BME280;38819;42.692;23.342;2023-07-13T06:03:56;95558.25;;;26.23;55.05
52957;BME280;38819;42.692;23.342;2023-07-13T06:06:21;95559.50;;;26.33;54.49
52957;BME280;38819;42.692;23.342;2023-07-13T06:08:47;95560.28;;;26.37;54.14
52957;BME280;38819;42.692;23.342;2023-07-13T06:11:15;95554.44;;;26.50;53.43
52957;BME280;38819;42.692;23.342;2023-07-13T06:13:41;95567.88;;;26.51;53.12
52957;BME280;38819;42.692;23.342;2023-07-13T06:16:07;95573.72;;;26.32;53.97
52957;BME280;38819;42.692;23.342;2023-07-13T06:18:35;95584.84;;;26.39;54.16
52957;BME280;38819;42.692;23.342;2023-07-13T06:21:06;95571.38;;;26.37;54.45
52957;BME280;38819;42.692;23.342;2023-07-13T06:23:31;95574.16;;;26.41;53.67
52957;BME280;38819;42.692;23.342;2023-07-13T06:25:57;95569.84;;;26.47;53.52
52957;BME280;38819;42.692;23.342;2023-07-13T06:28:22;95574.53;;;26.39;53.57
52957;BME280;38819;42.692;23.342;2023-07-13T06:30:47;95570.97;;;26.35;52.63
52957;BME280;38819;42.692;23.342;2023-07-13T06:33:13;95573.38;;;26.40;53.05
52957;BME280;38819;42.692;23.342;2023-07-13T06:35:38;95559.53;;;26.44;53.07
52957;BME280;38819;42.692;23.342;2023-07-13T06:38:04;95570.63;;;26.44;54.05
52957;BME280;38819;42.692;23.342;2023-07-13T06:40:30;95565.53;;;26.53;53.78
52957;BME280;38819;42.692;23.342;2023-07-13T06:42:56;95562.47;;;26.69;54.08
52957;BME280;38819;42.692;23.342;2023-07-13T06:45:21;95561.66;;;26.69;53.87
52957;BME280;38819;42.692;23.342;2023-07-13T06:47:47;95553.38;;;26.76;53.50
52957;BME280;38819;42.692;23.342;2023-07-13T06:50:12;95553.78;;;26.78;53.06
52957;BME280;38819;42.692;23.342;2023-07-13T06:52:38;95548.31;;;26.92;52.52
52957;BME280;38819;42.692;23.342;2023-07-13T06:55:04;95561.00;;;26.93;52.56
52957;BME280;38819;42.692;23.342;2023-07-13T06:57:29;95555.41;;;26.86;52.03
52957;BME280;38819;42.692;23.342;2023-07-13T06:59:54;95560.16;;;26.93;52.15
52957;BME280;38819;42.692;23.342;2023-07-13T07:02:20;95558.22;;;26.93;52.23
52957;BME280;38819;42.692;23.342;2023-07-13T07:04:45;95558.63;;;26.99;51.27
52957;BME280;38819;42.692;23.342;2023-07-13T07:07:11;95560.56;;;26.88;52.02
52957;BME280;38819;42.692;23.342;2023-07-13T07:09:36;95555.81;;;26.88;51.27
52957;BME280;38819;42.692;23.342;2023-07-13T07:12:02;95557.81;;;26.95;51.36
52957;BME280;38819;42.692;23.342;2023-07-13T07:14:29;95556.63;;;26.92;51.47
52957;BME280;38819;42.692;23.342;2023-07-13T07:16:54;95543.53;;;26.86;51.33
52957;BME280;38819;42.692;23.342;2023-07-13T07:19:19;95552.63;;;26.86;51.27
52957;BME280;38819;42.692;23.342;2023-07-13T07:21:45;95550.66;;;26.83;51.09
52957;BME280;38819;42.692;23.342;2023-07-13T07:24:10;95548.31;;;26.92;50.67
52957;BME280;38819;42.692;23.342;2023-07-13T07:26:36;95550.28;;;26.88;50.58
52957;BME280;38819;42.692;23.342;2023-07-13T07:29:01;95554.66;;;26.96;51.29
52957;BME280;38819;42.692;23.342;2023-07-13T07:31:27;95552.31;;;27.02;50.70
52957;BME280;38819;42.692;23.342;2023-07-13T07:33:52;95536.06;;;27.08;50.79
52957;BME280;38819;42.692;23.342;2023-07-13T07:36:18;95537.66;;;27.16;50.78
52957;BME280;38819;42.692;23.342;2023-07-13T07:38:43;95533.38;;;27.29;50.34
52957;BME280;38819;42.692;23.342;2023-07-13T07:41:09;95537.34;;;27.39;50.51
52957;BME280;38819;42.692;23.342;2023-07-13T07:43:35;95530.63;;;27.58;50.33
52957;BME280;38819;42.692;23.342;2023-07-13T07:46:00;95526.66;;;27.59;49.05
52957;BME280;38819;42.692;23.342;2023-07-13T07:48:26;95527.47;;;27.70;48.89
52957;BME280;38819;42.692;23.342;2023-07-13T07:50:51;95528.25;;;27.75;48.97
52957;BME280;38819;42.692;23.342;2023-07-13T07:53:17;95528.66;;;27.87;49.47
52957;BME280;38819;42.692;23.342;2023-07-13T07:55:42;95523.09;;;27.98;49.38
52957;BME280;38819;42.692;23.342;2023-07-13T07:58:10;95521.91;;;28.03;49.38
52957;BME280;38819;42.692;23.342;2023-07-13T08:00:35;95521.53;;;28.04;49.63
52957;BME280;38819;42.692;23.342;2023-07-13T08:03:01;95516.78;;;28.08;49.44
52957;BME280;38819;42.692;23.342;2023-07-13T08:05:27;95510.78;;;28.17;48.98
52957;BME280;38819;42.692;23.342;2023-07-13T08:07:52;95515.53;;;28.24;49.07
52957;BME280;38819;42.692;23.342;2023-07-13T08:10:18;95505.19;;;28.35;49.60
52957;BME280;38819;42.692;23.342;2023-07-13T08:12:44;95495.66;;;28.33;48.87
52957;BME280;38819;42.692;23.342;2023-07-13T08:15:12;95503.16;;;28.46;47.64
52957;BME280;38819;42.692;23.342;2023-07-13T08:17:37;95497.19;;;28.48;48.63
52957;BME280;38819;42.692;23.342;2023-07-13T08:20:03;95492.84;;;28.47;48.13
52957;BME280;38819;42.692;23.342;2023-07-13T08:22:29;95488.50;;;28.57;48.37
52957;BME280;38819;42.692;23.342;2023-07-13T08:24:54;95495.97;;;28.71;48.13
52957;BME280;38819;42.692;23.342;2023-07-13T08:27:24;95497.91;;;28.81;48.12
52957;BME280;38819;42.692;23.342;2023-07-13T08:29:50;95486.75;;;28.85;47.54
52957;BME280;38819;42.692;23.342;2023-07-13T08:32:18;95489.91;;;28.87;47.53
52957;BME280;38819;42.692;23.342;2023-07-13T08:34:43;95483.53;;;28.97;46.58
52957;BME280;38819;42.692;23.342;2023-07-13T08:37:09;95485.50;;;28.96;46.21
52957;BME280;38819;42.692;23.342;2023-07-13T08:39:35;95476.38;;;28.96;46.78
52957;BME280;38819;42.692;23.342;2023-07-13T08:42:31;95471.94;;;29.06;47.29
52957;BME280;38819;42.692;23.342;2023-07-13T08:45:24;95477.06;;;29.14;47.93
52957;BME280;38819;42.692;23.342;2023-07-13T08:47:59;95477.81;;;29.26;46.40
52957;BME280;38819;42.692;23.342;2023-07-13T08:50:35;95472.28;;;29.22;46.33
52957;BME280;38819;42.692;23.342;2023-07-13T08:53:07;95479.06;;;29.17;46.28
52957;BME280;38819;42.692;23.342;2023-07-13T08:55:35;95481.44;;;29.15;45.85
52957;BME280;38819;42.692;23.342;2023-07-13T08:58:15;95481.44;;;29.19;45.95
52957;BME280;38819;42.692;23.342;2023-07-13T09:03:18;95497.28;;;29.26;46.66
52957;BME280;38819;42.692;23.342;2023-07-13T09:05:49;95505.22;;;29.27;44.93
52957;BME280;38819;42.692;23.342;2023-07-13T09:11:05;95502.34;;;29.38;45.97
52957;BME280;38819;42.692;23.342;2023-07-13T09:14:17;95505.88;;;29.46;44.14
52957;BME280;38819;42.692;23.342;2023-07-13T09:16:33;95507.44;;;29.50;44.22
52957;BME280;38819;42.692;23.342;2023-07-13T09:19:04;95502.63;;;29.54;44.39
52957;BME280;38819;42.692;23.342;2023-07-13T09:21:33;95502.59;;;29.58;44.07
52957;BME280;38819;42.692;23.342;2023-07-13T09:26:39;95502.16;;;29.63;44.75
52957;BME280;38819;42.692;23.342;2023-07-13T09:29:16;95505.66;;;29.74;44.21
52957;BME280;38819;42.692;23.342;2023-07-13T09:31:47;95502.88;;;29.74;43.91
52957;BME280;38819;42.692;23.342;2023-07-13T09:34:14;95496.88;;;29.80;43.21
52957;BME280;38819;42.692;23.342;2023-07-13T09:36:40;95494.84;;;29.87;42.98
52957;BME280;38819;42.692;23.342;2023-07-13T09:39:14;95495.94;;;29.97;42.68
52957;BME280;38819;42.692;23.342;2023-07-13T09:44:34;95494.72;;;29.98;42.91
52957;BME280;38819;42.692;23.342;2023-07-13T09:47:00;95479.56;;;30.03;43.55
52957;BME280;38819;42.692;23.342;2023-07-13T09:49:34;95479.53;;;30.06;43.46
52957;BME280;38819;42.692;23.342;2023-07-13T09:52:07;95469.16;;;30.07;43.83
52957;BME280;38819;42.692;23.342;2023-07-13T09:54:36;95469.47;;;30.16;43.69
52957;BME280;38819;42.692;23.342;2023-07-13T09:57:08;95463.78;;;30.27;43.75
52957;BME280;38819;42.692;23.342;2023-07-13T09:59:41;95472.06;;;30.34;44.39
52957;BME280;38819;42.692;23.342;2023-07-13T10:02:29;95463.59;;;30.45;43.56
52957;BME280;38819;42.692;23.342;2023-07-13T10:04:56;95456.78;;;30.50;42.52
52957;BME280;38819;42.692;23.342;2023-07-13T10:07:23;95453.53;;;30.55;42.28
52957;BME280;38819;42.692;23.342;2023-07-13T10:10:00;95452.19;;;30.66;42.62
52957;BME280;38819;42.692;23.342;2023-07-13T10:12:26;95441.75;;;30.74;41.97
52957;BME280;38819;42.692;23.342;2023-07-13T10:14:55;95433.75;;;30.76;40.42
52957;BME280;38819;42.692;23.342;2023-07-13T10:17:29;95440.38;;;30.86;39.63
52957;BME280;38819;42.692;23.342;2023-07-13T10:20:02;95447.84;;;30.93;39.14
52957;BME280;38819;42.692;23.342;2023-07-13T10:22:54;95433.25;;;31.12;34.93
52957;BME280;38819;42.692;23.342;2023-07-13T10:25:24;95434.63;;;31.28;33.59
52957;BME280;38819;42.692;23.342;2023-07-13T10:27:53;95437.84;;;31.50;34.38
52957;BME280;38819;42.692;23.342;2023-07-13T10:30:23;95428.31;;;31.47;34.94
52957;BME280;38819;42.692;23.342;2023-07-13T10:32:51;95426.31;;;31.48;36.62
52957;BME280;38819;42.692;23.342;2023-07-13T10:35:19;95420.28;;;31.53;35.13
52957;BME280;38819;42.692;23.342;2023-07-13T10:37:52;95419.38;;;31.60;34.62
52957;BME280;38819;42.692;23.342;2023-07-13T10:40:32;95420.09;;;31.64;35.56
52957;BME280;38819;42.692;23.342;2023-07-13T10:43:02;95425.53;;;31.71;33.04
52957;BME280;38819;42.692;23.342;2023-07-13T10:45:34;95413.44;;;31.77;33.11
52957;BME280;38819;42.692;23.342;2023-07-13T10:48:01;95404.28;;;31.77;31.56
52957;BME280;38819;42.692;23.342;2023-07-13T10:50:28;95402.09;;;31.88;31.24
52957;BME280;38819;42.692;23.342;2023-07-13T10:53:01;95396.88;;;31.90;31.38
52957;BME280;38819;42.692;23.342;2023-07-13T10:55:55;95397.19;;;31.96;31.02
52957;BME280;38819;42.692;23.342;2023-07-13T11:03:34;95388.59;;;32.07;30.97
52957;BME280;38819;42.692;23.342;2023-07-13T11:10:56;95367.44;;;32.26;30.36
52957;BME280;38819;42.692;23.342;2023-07-13T11:18:51;95366.81;;;32.38;30.68
52957;BME280;38819;42.692;23.342;2023-07-13T11:21:22;95359.94;;;32.43;30.67
52957;BME280;38819;42.692;23.342;2023-07-13T11:24:15;95359.47;;;32.44;30.29
52957;BME280;38819;42.692;23.342;2023-07-13T11:32:00;95355.31;;;32.53;31.10
52957;BME280;38819;42.692;23.342;2023-07-13T11:34:38;95352.38;;;32.60;30.59
52957;BME280;38819;42.692;23.342;2023-07-13T11:37:11;95353.16;;;32.60;30.03
52957;BME280;38819;42.692;23.342;2023-07-13T11:39:42;95342.34;;;32.62;30.42
52957;BME280;38819;42.692;23.342;2023-07-13T11:42:12;95341.81;;;32.67;30.35
52957;BME280;38819;42.692;23.342;2023-07-13T11:44:43;95342.97;;;32.70;30.81
52957;BME280;38819;42.692;23.342;2023-07-13T11:47:14;95346.97;;;32.69;30.49
52957;BME280;38819;42.692;23.342;2023-07-13T11:49:47;95341.31;;;32.73;30.76
52957;BME280;38819;42.692;23.342;2023-07-13T11:52:16;95334.84;;;32.76;31.62
52957;BME280;38819;42.692;23.342;2023-07-13T11:54:53;95334.69;;;32.83;30.97
52957;BME280;38819;42.692;23.342;2023-07-13T11:57:29;95331.53;;;32.81;31.04
52957;BME280;38819;42.692;23.342;2023-07-13T11:59:58;95323.94;;;32.81;32.18
52957;BME280;38819;42.692;23.342;2023-07-13T12:02:34;95331.44;;;32.84;31.67
52957;BME280;38819;42.692;23.342;2023-07-13T12:05:03;95322.56;;;32.90;31.94
52957;BME280;38819;42.692;23.342;2023-07-13T12:07:32;95323.25;;;32.94;32.26
52957;BME280;38819;42.692;23.342;2023-07-13T12:10:26;95326.81;;;32.94;31.72
52957;BME280;38819;42.692;23.342;2023-07-13T12:12:57;95318.44;;;32.94;31.79
52957;BME280;38819;42.692;23.342;2023-07-13T12:15:28;95320.16;;;33.04;29.84
52957;BME280;38819;42.692;23.342;2023-07-13T12:17:56;95313.44;;;33.02;30.61
52957;BME280;38819;42.692;23.342;2023-07-13T12:20:30;95302.94;;;33.06;30.86
52957;BME280;38819;42.692;23.342;2023-07-13T12:22:58;95286.09;;;33.10;30.46
52957;BME280;38819;42.692;23.342;2023-07-13T12:25:24;95285.19;;;33.13;29.87
52957;BME280;38819;42.692;23.342;2023-07-13T12:27:51;95285.50;;;33.18;30.61
52957;BME280;38819;42.692;23.342;2023-07-13T12:30:31;95293.69;;;33.26;29.96
52957;BME280;38819;42.692;23.342;2023-07-13T12:33:05;95290.47;;;33.27;30.49
52957;BME280;38819;42.692;23.342;2023-07-13T12:35:42;95280.41;;;33.30;29.17
52957;BME280;38819;42.692;23.342;2023-07-13T12:38:11;95277.63;;;33.30;30.36
52957;BME280;38819;42.692;23.342;2023-07-13T12:40:37;95268.69;;;33.35;29.78
52957;BME280;38819;42.692;23.342;2023-07-13T12:43:10;95269.25;;;33.42;29.33
52957;BME280;38819;42.692;23.342;2023-07-13T12:45:36;95264.97;;;33.38;28.68
52957;BME280;38819;42.692;23.342;2023-07-13T12:48:14;95258.88;;;33.43;28.72
52957;BME280;38819;42.692;23.342;2023-07-13T12:50:42;95263.22;;;33.44;28.63
52957;BME280;38819;42.692;23.342;2023-07-13T12:53:14;95255.06;;;33.50;28.88
52957;BME280;38819;42.692;23.342;2023-07-13T12:55:55;95258.56;;;33.54;29.13
52957;BME280;38819;42.692;23.342;2023-07-13T12:58:28;95254.88;;;33.57;28.87
52957;BME280;38819;42.692;23.342;2023-07-13T13:00:56;95257.22;;;33.58;28.75
52957;BME280;38819;42.692;23.342;2023-07-13T13:03:54;95245.38;;;33.67;28.80
52957;BME280;38819;42.692;23.342;2023-07-13T13:06:24;95253.25;;;33.72;28.34
52957;BME280;38819;42.692;23.342;2023-07-13T13:08:55;95241.63;;;33.74;28.47
52957;BME280;38819;42.692;23.342;2023-07-13T13:11:22;95233.56;;;33.76;28.16
52957;BME280;38819;42.692;23.342;2023-07-13T13:13:49;95243.31;;;33.84;28.08
52957;BME280;38819;42.692;23.342;2023-07-13T13:18:55;95234.91;;;33.84;27.74
52957;BME280;38819;42.692;23.342;2023-07-13T13:21:23;95227.84;;;33.79;27.16
52957;BME280;38819;42.692;23.342;2023-07-13T13:23:49;95227.28;;;33.85;27.52
52957;BME280;38819;42.692;23.342;2023-07-13T13:26:16;95224.41;;;33.88;27.31
52957;BME280;38819;42.692;23.342;2023-07-13T13:28:43;95220.34;;;33.89;28.07
52957;BME280;38819;42.692;23.342;2023-07-13T13:31:09;95223.50;;;33.91;27.98